Time;durP1;ratioP1;P1;durP2;ratioP2;P2;SDS_P1;SDS_P2;PMS_P1;PMS_P2;Temp;Humidity;BMP_temperature;BMP_pressure;BME280_temperature;BME280_humidity;BME280_pressure;Samples;Min_cycle;Max_cycle;Signal;HPM_P1;HPM_P2
2023/09/25 00:00:18;;;;;;;8.90;5.25;;;;;;;22.11;51.70;102136.47;2283785;77;50325;-74
2023/09/25 00:03:20;;;;;;;9.15;4.80;;;;;;;22.12;51.63;102138.17;2283782;77;50520;-75
2023/09/25 00:06:24;;;;;;;8.40;4.90;;;;;;;22.12;51.65;102138.17;2287272;76;50720;-74
2023/09/25 00:09:27;;;;;;;9.03;4.97;;;;;;;22.11;51.71;102143.20;2251691;76;51642;-74
2023/09/25 00:12:29;;;;;;;7.50;4.65;;;;;;;22.09;51.67;102140.70;2333120;76;51585;-74
2023/09/25 00:15:32;;;;;;;9.15;4.58;;;;;;;22.09;51.71;102139.83;2319073;76;51505;-74
2023/09/25 00:18:34;;;;;;;8.50;4.67;;;;;;;22.10;51.68;102138.84;2306877;76;50117;-74
2023/09/25 00:21:37;;;;;;;7.62;4.55;;;;;;;22.09;51.69;102131.75;2319091;76;50308;-75
2023/09/25 00:24:39;;;;;;;8.93;4.70;;;;;;;22.10;51.67;102130.75;2332990;76;50706;-75
2023/09/25 00:27:41;;;;;;;9.35;4.95;;;;;;;22.09;51.65;102137.14;2305419;76;51324;-75
2023/09/25 00:30:43;;;;;;;7.87;4.28;;;;;;;22.09;51.65;102134.44;2319115;75;51534;-75
2023/09/25 00:33:45;;;;;;;7.12;4.47;;;;;;;22.09;51.55;102138.48;2279719;76;52435;-75
2023/09/25 00:36:48;;;;;;;9.10;4.37;;;;;;;22.09;51.62;102139.83;2333233;76;51699;-75
2023/09/25 00:39:50;;;;;;;6.83;4.35;;;;;;;22.10;51.60;102132.10;2289776;76;51552;-75
2023/09/25 00:42:56;;;;;;;9.28;4.35;;;;;;;22.10;51.61;102141.53;2322737;76;51433;-75
2023/09/25 00:45:59;;;;;;;6.20;4.00;;;;;;;22.10;51.58;102138.84;2330828;75;50766;-74
2023/09/25 00:49:01;;;;;;;7.20;4.35;;;;;;;22.09;51.61;102139.83;2330882;76;50716;-75
2023/09/25 00:52:03;;;;;;;7.95;4.40;;;;;;;22.07;51.67;102141.37;2330828;76;51438;-73
2023/09/25 00:55:06;;;;;;;6.28;4.12;;;;;;;22.07;51.81;102137.33;2296654;76;51393;-75
2023/09/25 00:58:08;;;;;;;9.00;3.95;;;;;;;22.06;51.75;102138.32;2296695;76;52289;-75
2023/09/25 01:01:11;;;;;;;7.55;4.42;;;;;;;22.08;51.61;102134.13;2330908;76;51456;-75
2023/09/25 01:04:13;;;;;;;8.30;4.30;;;;;;;22.07;51.57;102119.80;2296987;76;50734;-75
2023/09/25 01:07:21;;;;;;;7.75;4.30;;;;;;;22.07;51.63;102131.10;2295401;76;52460;-75
2023/09/25 01:10:20;;;;;;;7.08;4.00;;;;;;;22.06;51.66;102119.45;2317781;76;22240;-76
2023/09/25 01:13:22;;;;;;;8.38;3.60;;;;;;;22.07;51.65;102118.45;2263074;76;51624;-75
2023/09/25 01:16:24;;;;;;;5.42;3.70;;;;;;;22.06;51.66;102110.53;2305610;76;50271;-74
2023/09/25 01:19:27;;;;;;;6.67;3.77;;;;;;;22.06;51.67;102108.67;2319125;76;50685;-74
2023/09/25 01:22:29;;;;;;;8.25;3.90;;;;;;;22.06;51.62;102103.28;2263236;75;51215;-74
2023/09/25 01:25:32;;;;;;;6.33;3.75;;;;;;;22.05;51.61;102105.65;2305536;75;50244;-75
2023/09/25 01:28:34;;;;;;;8.70;3.80;;;;;;;22.05;51.68;102102.12;2305551;76;50748;-74
2023/09/25 01:31:36;;;;;;;6.28;3.95;;;;;;;22.05;51.65;102098.08;2306909;75;51167;-74
2023/09/25 01:34:39;;;;;;;7.30;3.95;;;;;;;22.03;51.70;102101.44;2305574;76;50638;-74
2023/09/25 01:37:42;;;;;;;6.35;3.83;;;;;;;22.03;51.76;102106.83;2285275;76;50355;-74
2023/09/25 01:40:44;;;;;;;6.47;4.10;;;;;;;22.03;51.68;102106.32;2291161;76;50534;-74
2023/09/25 01:43:46;;;;;;;5.70;3.60;;;;;;;22.04;51.65;102109.38;2317039;76;50615;-74
2023/09/25 01:46:48;;;;;;;8.93;3.92;;;;;;;22.04;51.70;102103.11;2266273;76;52533;-74
2023/09/25 01:49:50;;;;;;;7.60;3.45;;;;;;;22.03;51.63;102101.44;2317192;76;51330;-74
2023/09/25 01:52:56;;;;;;;4.10;3.37;;;;;;;22.03;51.60;102098.23;2291289;76;51470;-74
2023/09/25 01:55:57;;;;;;;;;;;;;;;22.03;51.67;102097.40;2294944;76;53518;-74
2023/09/25 01:58:59;;;;;;;5.58;3.60;;;;;;;22.04;51.59;102095.89;2293184;76;50256;-74
2023/09/25 02:02:02;;;;;;;4.30;3.47;;;;;;;22.02;51.68;102099.77;2317239;76;50323;-74
2023/09/25 02:05:05;;;;;;;7.17;3.72;;;;;;;22.02;51.63;102091.69;2260879;76;51677;-76
2023/09/25 02:08:09;;;;;;;7.00;3.67;;;;;;;22.01;51.74;102092.67;2301333;76;50694;-74
2023/09/25 02:11:11;;;;;;;6.08;3.40;;;;;;;22.01;51.64;102099.42;2318197;76;51581;-74
2023/09/25 02:14:13;;;;;;;6.17;3.15;;;;;;;22.01;51.67;102102.95;2317107;75;51631;-74
2023/09/25 02:17:15;;;;;;;6.40;3.60;;;;;;;22.01;51.67;102102.11;2291050;76;51556;-76
2023/09/25 02:20:19;;;;;;;5.28;3.60;;;;;;;21.99;51.70;102103.65;2291290;76;50332;-76
2023/09/25 02:23:21;;;;;;;7.45;3.60;;;;;;;21.99;51.61;102105.00;2291530;76;50319;-75
2023/09/25 02:26:25;;;;;;;4.55;3.25;;;;;;;21.99;51.63;102107.69;2261095;76;51797;-76
2023/09/25 02:29:28;;;;;;;5.72;3.70;;;;;;;22.00;51.70;102108.53;2292989;76;52438;-76
2023/09/25 02:32:30;;;;;;;5.00;3.30;;;;;;;21.99;51.61;102096.91;2291644;76;50775;-76
2023/09/25 02:35:32;;;;;;;4.72;3.35;;;;;;;22.01;51.62;102098.07;2317104;76;50640;-76
2023/09/25 02:38:34;;;;;;;6.30;3.70;;;;;;;21.99;51.61;102098.26;2317463;76;51542;-76
2023/09/25 02:41:36;;;;;;;6.58;3.10;;;;;;;21.99;51.63;102090.66;2319096;76;51561;-76
2023/09/25 02:44:39;;;;;;;5.80;3.20;;;;;;;21.98;51.69;102090.33;2318960;75;51526;-76
2023/09/25 02:47:41;;;;;;;6.15;3.20;;;;;;;21.98;51.65;102084.94;2333345;75;51475;-76
2023/09/25 02:50:43;;;;;;;4.83;3.33;;;;;;;21.99;51.60;102089.30;2305534;76;51518;-76
2023/09/25 02:53:45;;;;;;;6.28;3.12;;;;;;;21.98;51.64;102094.37;2305349;76;50294;-75
2023/09/25 02:56:48;;;;;;;5.62;3.10;;;;;;;21.95;51.69;102091.00;2333329;76;50269;-76
2023/09/25 02:59:50;;;;;;;5.12;3.33;;;;;;;21.95;51.65;102089.66;2333284;76;50210;-76
2023/09/25 03:02:53;;;;;;;6.08;3.37;;;;;;;21.95;51.68;102084.27;2305523;76;51535;-76
2023/09/25 03:05:55;;;;;;;4.87;2.80;;;;;;;21.95;51.74;102094.20;2319078;76;51463;-74
2023/09/25 03:08:57;;;;;;;8.00;3.12;;;;;;;21.95;51.69;102106.34;2297658;76;51715;-75
2023/09/25 03:12:01;;;;;;;6.65;3.42;;;;;;;21.95;51.76;102096.91;2305502;76;51475;-75
2023/09/25 03:15:04;;;;;;;5.67;3.10;;;;;;;21.96;51.65;102104.83;2305540;76;50326;-75
2023/09/25 03:18:07;;;;;;;4.95;3.30;;;;;;;21.95;51.69;102100.44;2280330;76;51210;-75
2023/09/25 03:21:12;;;;;;;4.80;3.15;;;;;;;21.94;51.63;102098.77;2333473;76;51417;-76
2023/09/25 03:24:14;;;;;;;2.98;2.62;;;;;;;21.94;51.68;102101.45;2317872;76;50420;-75
2023/09/25 03:27:17;;;;;;;5.80;2.95;;;;;;;21.93;51.73;102095.71;2305598;76;50615;-76
2023/09/25 03:30:19;;;;;;;5.80;2.77;;;;;;;21.93;51.69;102095.71;2319098;76;51387;-75
2023/09/25 03:33:23;;;;;;;3.65;2.77;;;;;;;21.93;51.71;102101.10;2279888;76;51152;-75
2023/09/25 03:36:26;;;;;;;3.87;2.67;;;;;;;21.94;51.66;102102.80;2305670;76;22258;-75
2023/09/25 03:39:28;;;;;;;5.95;3.05;;;;;;;21.92;51.72;102098.08;2308609;76;51576;-76
2023/09/25 03:42:30;;;;;;;4.47;2.72;;;;;;;21.92;51.73;102098.59;2279722;76;51816;-74
2023/09/25 03:45:33;;;;;;;5.15;2.80;;;;;;;21.92;51.61;102099.95;2305435;76;50430;-74
2023/09/25 03:48:35;;;;;;;3.83;2.83;;;;;;;21.91;51.66;102096.89;2319030;76;50228;-74
2023/09/25 03:51:37;;;;;;;5.08;2.87;;;;;;;21.92;51.66;102103.98;2305410;76;50622;-73
2023/09/25 03:54:39;;;;;;;4.30;2.90;;;;;;;21.92;51.65;102102.64;2305171;76;51572;-74
2023/09/25 03:57:41;;;;;;;3.02;2.70;;;;;;;21.91;51.63;102105.84;2306719;76;52384;-74
2023/09/25 04:00:44;;;;;;;4.12;2.70;;;;;;;21.91;51.57;102097.77;2319012;76;51441;-74
2023/09/25 04:03:46;;;;;;;3.98;2.83;;;;;;;21.89;51.68;102098.43;2318829;75;51467;-74
2023/09/25 04:06:49;;;;;;;5.28;2.60;;;;;;;21.89;51.64;102105.16;2250299;78;52801;-74
2023/09/25 04:09:51;;;;;;;4.05;2.60;;;;;;;21.89;51.65;102099.78;2325480;76;51859;-74
2023/09/25 04:12:53;;;;;;;6.10;3.05;;;;;;;21.91;51.66;102102.28;2318757;76;52018;-74
2023/09/25 04:15:56;;;;;;;3.37;2.55;;;;;;;21.89;51.65;102092.20;2290975;76;51562;-74
2023/09/25 04:18:58;;;;;;;6.37;2.62;;;;;;;21.89;51.66;102101.64;2317124;76;51572;-74
2023/09/25 04:22:06;;;;;;;4.75;2.47;;;;;;;21.88;51.57;102088.64;2291494;76;51507;-74
2023/09/25 04:25:08;;;;;;;3.60;2.50;;;;;;;21.88;51.64;102092.69;2290561;76;22299;-74
2023/09/25 04:28:11;;;;;;;3.05;2.47;;;;;;;21.90;51.56;102091.18;2291413;76;22731;-75
2023/09/25 04:31:12;;;;;;;4.03;2.75;;;;;;;21.89;51.60;102097.08;2291628;76;22525;-75
2023/09/25 04:34:15;;;;;;;3.17;2.50;;;;;;;21.88;51.55;102102.12;2316902;76;50410;-74
2023/09/25 04:37:19;;;;;;;5.78;2.80;;;;;;;21.87;51.67;102108.53;2285948;76;22813;-74
2023/09/25 04:43:25;;;;;;;3.77;2.52;;;;;;;21.85;51.62;102109.20;2292044;75;22645;-74
2023/09/25 04:46:28;;;;;;;3.17;2.22;;;;;;;21.86;51.63;102102.82;2292821;76;51197;-74
2023/09/25 04:49:30;;;;;;;3.37;2.45;;;;;;;21.86;51.75;102104.16;2291028;76;51576;-74
2023/09/25 04:52:33;;;;;;;4.35;2.52;;;;;;;21.88;52.21;102106.67;2318628;76;51544;-74
2023/09/25 04:55:36;;;;;;;4.47;2.50;;;;;;;21.89;52.10;102104.33;2266214;76;52423;-75
2023/09/25 04:58:38;;;;;;;9.28;2.55;;;;;;;21.90;52.18;102103.31;2318590;76;51264;-75
2023/09/25 05:01:40;;;;;;;6.95;2.92;;;;;;;21.90;52.11;102100.61;2270728;77;51520;-75
2023/09/25 05:04:42;;;;;;;3.95;2.87;;;;;;;21.87;52.40;102104.48;2255533;78;51803;-75
2023/09/25 05:07:46;;;;;;;7.00;2.90;;;;;;;21.90;52.60;102101.96;2296189;75;51588;-76
2023/09/25 05:10:49;;;;;;;5.85;3.20;;;;;;;21.92;52.54;102105.34;2292779;76;52522;-76
2023/09/25 05:13:51;;;;;;;11.57;3.20;;;;;;;21.91;53.06;102097.77;2291316;75;50149;-76
2023/09/25 05:16:53;;;;;;;6.97;2.62;;;;;;;21.92;53.19;102102.64;2291549;76;50516;-77
2023/09/25 05:19:56;;;;;;;12.03;2.90;;;;;;;21.91;52.80;102101.80;2292908;76;49446;-77
2023/09/25 05:22:58;;;;;;;7.90;3.02;;;;;;;21.92;53.01;102114.25;2317097;76;50899;-77
2023/09/25 05:26:00;;;;;;;6.60;2.77;;;;;;;21.95;52.87;102107.68;2317323;76;51682;-76
2023/09/25 05:29:03;;;;;;;8.28;2.67;;;;;;;21.95;53.11;102113.91;2291700;76;51484;-75
2023/09/25 05:32:05;;;;;;;9.90;2.98;;;;;;;21.94;53.24;102101.45;2291233;76;51458;-77
2023/09/25 05:35:08;;;;;;;15.20;3.12;;;;;;;21.94;53.22;102112.23;2266389;76;51186;-75
2023/09/25 05:38:10;;;;;;;8.58;2.85;;;;;;;21.94;53.25;102111.41;2278827;76;51556;-76
2023/09/25 05:41:14;;;;;;;24.07;3.33;;;;;;;21.94;53.50;102110.89;2305581;76;50795;-76
2023/09/25 05:44:16;;;;;;;10.58;3.05;;;;;;;21.93;53.16;102111.88;2263190;76;49669;-77
2023/09/25 05:47:18;;;;;;;11.25;3.00;;;;;;;21.94;53.18;102104.16;2319081;76;50636;-76
2023/09/25 05:50:21;;;;;;;12.00;3.37;;;;;;;21.94;53.43;102112.23;2318829;76;50308;-76
2023/09/25 05:53:25;;;;;;;21.35;3.62;;;;;;;21.95;53.29;102112.56;2305143;76;50658;-75
2023/09/25 05:56:28;;;;;;;15.80;3.70;;;;;;;21.96;53.43;102106.66;2305285;76;23193;-76
2023/09/25 05:59:30;;;;;;;17.20;4.40;;;;;;;21.98;53.73;102099.77;2280583;76;51131;-76
2023/09/25 06:02:33;;;;;;;15.93;3.47;;;;;;;21.95;54.27;102097.73;2289164;77;50646;-76
2023/09/25 06:05:36;;;;;;;14.13;4.20;;;;;;;22.01;53.64;102103.46;2256367;76;49906;-76
2023/09/25 06:08:38;;;;;;;17.20;4.15;;;;;;;22.06;53.19;102107.83;2264681;76;51043;-76
2023/09/25 06:11:40;;;;;;;23.07;4.62;;;;;;;22.06;53.30;102102.44;2317051;76;50254;-75
2023/09/25 06:14:43;;;;;;;28.10;4.95;;;;;;;22.12;52.69;102104.47;2261113;77;51566;-76
2023/09/25 06:17:47;;;;;;;21.42;4.37;;;;;;;22.11;52.79;102112.20;2274703;78;50385;-76
2023/09/25 06:20:49;;;;;;;19.00;4.33;;;;;;;22.15;52.70;102113.56;2280090;77;49963;-76
2023/09/25 06:23:52;;;;;;;21.70;4.28;;;;;;;22.21;52.80;102108.85;2273518;76;51585;-76
2023/09/25 06:26:55;;;;;;;15.88;4.97;;;;;;;22.23;52.67;102106.83;2287705;76;50218;-75
2023/09/25 06:29:57;;;;;;;18.37;4.53;;;;;;;22.22;52.63;102115.08;2316623;76;50449;-76
2023/09/25 06:33:00;;;;;;;16.90;4.17;;;;;;;22.25;52.43;102114.25;2292069;76;52673;-76
2023/09/25 06:36:02;;;;;;;10.30;4.10;;;;;;;22.24;52.66;102119.28;2318045;76;50661;-75
2023/09/25 06:39:09;;;;;;;19.25;4.83;;;;;;;22.23;52.79;102114.92;2290908;76;50622;-75
2023/09/25 06:42:11;;;;;;;25.60;4.62;;;;;;;22.22;52.88;102115.95;2291667;76;50277;-76
2023/09/25 06:45:13;;;;;;;12.95;4.15;;;;;;;22.21;52.93;102107.50;2316580;76;50383;-76
2023/09/25 06:48:17;;;;;;;16.73;4.50;;;;;;;22.26;52.90;102112.39;2316570;76;50772;-76
2023/09/25 06:51:20;;;;;;;13.50;4.15;;;;;;;22.32;52.73;102113.88;2261000;76;51059;-75
2023/09/25 06:54:22;;;;;;;15.05;4.50;;;;;;;22.36;52.66;102104.44;2318834;75;52202;-75
2023/09/25 06:57:25;;;;;;;12.50;4.00;;;;;;;22.39;52.56;102099.20;2302453;76;51434;-75
2023/09/25 07:00:27;;;;;;;12.82;4.42;;;;;;;22.41;52.47;102091.78;2304777;75;51669;-75
2023/09/25 07:03:30;;;;;;;13.53;4.50;;;;;;;22.43;52.44;102099.69;2304646;76;51508;-75
2023/09/25 07:06:33;;;;;;;15.18;4.50;;;;;;;22.44;52.39;102092.78;2306256;76;49584;-76
2023/09/25 07:09:36;;;;;;;13.98;4.00;;;;;;;22.46;52.35;102099.36;2304983;76;51509;-76
2023/09/25 07:12:38;;;;;;;14.30;4.17;;;;;;;22.46;52.33;102088.57;2304897;76;51520;-76
2023/09/25 07:15:41;;;;;;;12.43;3.35;;;;;;;22.46;52.31;102087.22;2262422;76;50103;-76
2023/09/25 07:18:49;;;;;;;12.03;4.10;;;;;;;22.49;52.29;102085.52;2332588;75;50282;-76
2023/09/25 07:21:47;;;;;;;14.53;4.25;;;;;;;22.49;52.27;102089.56;2318118;76;23087;-76
2023/09/25 07:24:50;;;;;;;10.32;3.75;;;;;;;22.49;52.24;102094.96;2299076;76;51048;-75
2023/09/25 07:27:52;;;;;;;13.38;3.87;;;;;;;22.47;52.25;102103.73;2279977;78;50759;-76
2023/09/25 07:30:54;;;;;;;9.85;3.95;;;;;;;22.46;52.25;102100.20;2267819;78;52745;-76
2023/09/25 07:33:58;;;;;;;8.68;3.85;;;;;;;22.47;52.21;102102.38;2293425;76;51726;-76
2023/09/25 07:37:00;;;;;;;9.08;3.65;;;;;;;22.49;52.16;102104.41;2268111;78;50328;-75
2023/09/25 07:40:08;;;;;;;8.28;3.50;;;;;;;22.48;52.15;102099.52;2242977;77;49650;-76
2023/09/25 07:43:07;;;;;;;13.65;3.87;;;;;;;22.47;52.11;102108.61;2292868;76;22529;-77
2023/09/25 07:46:10;;;;;;;9.10;3.92;;;;;;;22.48;52.08;102102.70;2267808;77;50327;-76
2023/09/25 07:49:12;;;;;;;14.25;4.05;;;;;;;22.48;52.07;102108.09;2293874;77;51614;-76
2023/09/25 07:52:24;;;;;;;7.33;4.12;;;;;;;22.49;52.04;102100.36;2267777;78;51454;-77
2023/09/25 07:55:22;;;;;;;8.43;3.47;;;;;;;22.46;52.04;102095.31;2287098;76;22354;-76
2023/09/25 07:58:24;;;;;;;5.87;3.45;;;;;;;22.47;52.03;102095.13;2317891;76;50786;-76
2023/09/25 08:01:29;;;;;;;9.45;3.77;;;;;;;22.44;52.04;102095.98;2291118;76;51486;-78
2023/09/25 08:04:32;;;;;;;7.10;3.22;;;;;;;22.45;51.98;102090.91;2292206;76;51300;-76
2023/09/25 08:07:34;;;;;;;8.18;3.60;;;;;;;22.43;51.98;102092.45;2290782;76;50355;-76
2023/09/25 08:10:36;;;;;;;9.55;3.47;;;;;;;22.44;51.96;102097.34;2290725;76;51406;-76
2023/09/25 08:13:38;;;;;;;8.18;3.95;;;;;;;22.44;51.95;102098.69;2318021;75;50704;-76
2023/09/25 08:16:41;;;;;;;9.45;3.70;;;;;;;22.43;51.93;102102.38;2316476;76;51566;-75
2023/09/25 08:19:43;;;;;;;7.25;3.52;;;;;;;22.40;51.96;102098.17;2292139;76;51281;-76
2023/09/25 08:22:45;;;;;;;8.80;3.15;;;;;;;22.38;52.00;102098.88;2290499;76;50052;-76
2023/09/25 08:25:48;;;;;;;7.05;3.55;;;;;;;22.37;51.96;102102.57;2317307;75;50848;-76
2023/09/25 08:28:50;;;;;;;9.95;3.30;;;;;;;22.35;51.96;102104.11;2316584;76;51586;-76
2023/09/25 08:31:52;;;;;;;4.85;3.12;;;;;;;22.35;51.92;102104.59;2317896;76;51398;-75
2023/09/25 08:34:55;;;;;;;6.95;3.02;;;;;;;22.35;51.90;102098.72;2317706;75;50374;-76
2023/09/25 08:37:57;;;;;;;5.58;3.20;;;;;;;22.34;51.95;102097.53;2290862;76;51542;-76
2023/09/25 08:40:59;;;;;;;7.75;3.12;;;;;;;22.32;51.98;102095.51;2290568;76;51434;-76
2023/09/25 08:44:02;;;;;;;4.78;3.00;;;;;;;22.31;52.02;102108.16;2265360;75;51290;-76
2023/09/25 08:47:04;;;;;;;9.10;3.12;;;;;;;22.32;52.00;102107.64;2316608;76;51474;-76
2023/09/25 08:50:08;;;;;;;8.38;3.20;;;;;;;22.31;52.02;102103.27;2291188;76;50554;-76
2023/09/25 08:53:10;;;;;;;6.25;3.33;;;;;;;22.30;52.01;102102.44;2292561;76;49714;-76
2023/09/25 08:56:14;;;;;;;6.37;3.20;;;;;;;22.29;52.05;102104.78;2311623;76;50240;-77
2023/09/25 08:59:16;;;;;;;4.92;2.75;;;;;;;22.28;52.06;102105.81;2318693;75;50685;-76
2023/09/25 09:02:18;;;;;;;7.30;3.02;;;;;;;22.28;52.07;102106.32;2332598;76;51504;-76
2023/09/25 09:05:20;;;;;;;5.70;3.15;;;;;;;22.27;52.08;102102.79;2318538;76;50460;-77
2023/09/25 09:08:23;;;;;;;10.80;3.50;;;;;;;22.26;52.07;102099.73;2304904;76;49681;-77
2023/09/25 09:11:25;;;;;;;5.75;2.72;;;;;;;22.26;52.08;102095.70;2304948;75;51516;-76
2023/09/25 09:14:36;;;;;;;5.65;3.05;;;;;;;22.25;52.09;102094.02;2304792;76;53624;-76
2023/09/25 09:17:39;;;;;;;5.55;3.10;;;;;;;22.25;52.07;102100.77;2299309;76;50176;-77
2023/09/25 09:20:41;;;;;;;6.90;3.10;;;;;;;22.23;52.06;102098.73;2332709;75;50394;-76
2023/09/25 09:23:43;;;;;;;7.97;3.33;;;;;;;22.23;52.05;102093.86;2318302;75;50454;-77
2023/09/25 09:26:46;;;;;;;5.10;3.12;;;;;;;22.22;52.02;102093.03;2283806;76;50726;-76
2023/09/25 09:29:52;;;;;;;7.53;2.98;;;;;;;22.21;52.02;102092.67;2304924;76;51490;-76
2023/09/25 09:32:52;;;;;;;5.12;2.70;;;;;;;22.20;52.02;102095.05;2318598;75;22589;-76
2023/09/25 09:35:54;;;;;;;6.03;2.92;;;;;;;22.19;52.03;102089.30;2304970;76;50360;-76
2023/09/25 09:38:56;;;;;;;7.90;3.17;;;;;;;22.19;52.01;102096.05;2332879;76;50299;-76
2023/09/25 09:41:59;;;;;;;6.33;3.00;;;;;;;22.17;52.00;102089.46;2306343;76;50098;-76
2023/09/25 09:45:02;;;;;;;5.12;3.10;;;;;;;22.15;51.99;102074.47;2318525;76;51513;-77
2023/09/25 09:48:04;;;;;;;5.05;3.12;;;;;;;22.16;51.97;102077.48;2318605;76;50277;-77
2023/09/25 09:51:06;;;;;;;5.10;2.83;;;;;;;22.14;51.98;102067.37;2318553;76;51450;-76
2023/09/25 09:54:09;;;;;;;4.58;2.72;;;;;;;22.13;52.01;102062.50;2312633;75;51487;-76
2023/09/25 09:57:12;;;;;;;3.55;2.92;;;;;;;22.12;52.04;102058.13;2292542;76;49654;-76
2023/09/25 10:00:14;;;;;;;4.92;2.80;;;;;;;22.12;52.05;102053.25;2318720;76;50467;-76
2023/09/25 10:03:17;;;;;;;5.62;3.30;;;;;;;22.12;52.01;102053.25;2318655;76;51493;-76
2023/09/25 10:06:19;;;;;;;6.20;2.90;;;;;;;22.10;52.05;102049.38;2318695;75;51443;-76
2023/09/25 10:09:21;;;;;;;4.97;2.80;;;;;;;22.11;52.06;102046.16;2333044;76;50225;-76
2023/09/25 10:12:49;;;;;;;3.77;2.52;;;;;;;22.11;52.03;102048.86;2332741;76;51526;-76
2023/09/25 10:16:00;;;;;;;4.58;2.52;;;;;;;22.11;52.01;102050.20;2331844;75;50650;-76
2023/09/25 10:19:02;;;;;;;5.90;2.75;;;;;;;22.10;52.02;102043.98;2314464;75;50884;-76
2023/09/25 10:22:19;;;;;;;4.40;2.92;;;;;;;22.09;52.00;102042.79;2305015;76;50250;-76
2023/09/25 10:25:22;;;;;;;5.95;2.62;;;;;;;22.10;51.93;102043.14;2318282;76;50318;-80
2023/09/25 10:28:31;;;;;;;4.55;2.60;;;;;;;22.10;51.91;102048.53;2305167;76;50663;-77
2023/09/25 10:31:33;;;;;;;3.50;2.45;;;;;;;22.09;51.90;102042.79;2318155;76;22579;-76
2023/09/25 10:34:35;;;;;;;4.17;3.00;;;;;;;22.10;51.91;102037.75;2332894;75;50657;-78
2023/09/25 10:37:37;;;;;;;3.70;2.87;;;;;;;22.09;51.87;102042.79;2305568;75;50096;-77
2023/09/25 10:40:49;;;;;;;3.72;2.75;;;;;;;22.08;51.89;102035.73;2333833;76;51462;-77
2023/09/25 10:43:51;;;;;;;6.20;2.80;;;;;;;22.08;51.85;102031.69;2305868;76;50352;-78
2023/09/25 10:46:54;;;;;;;4.72;2.90;;;;;;;22.08;51.85;102025.78;2307522;76;50105;-78
2023/09/25 10:49:56;;;;;;;4.92;2.72;;;;;;;22.08;51.80;102018.20;2333780;76;50720;-78
2023/09/25 10:52:58;;;;;;;4.85;2.92;;;;;;;22.07;51.82;102024.62;2333352;76;50737;-77
2023/09/25 10:56:01;;;;;;;5.45;3.05;;;;;;;22.08;51.79;102018.20;2299536;75;51071;-77
2023/09/25 10:59:04;;;;;;;3.47;2.87;;;;;;;22.08;51.71;102013.66;2333350;76;50756;-77
2023/09/25 11:02:06;;;;;;;4.28;2.47;;;;;;;22.07;51.76;102014.68;2305611;76;50493;-76
2023/09/25 11:05:09;;;;;;;5.58;2.75;;;;;;;22.07;51.72;102016.54;2305344;76;50491;-74
2023/09/25 11:08:15;;;;;;;3.62;2.47;;;;;;;22.06;51.72;102011.62;2305052;75;51667;-77
2023/09/25 11:11:17;;;;;;;4.10;3.20;;;;;;;22.06;51.67;102002.71;2305101;76;22381;-77
2023/09/25 11:14:19;;;;;;;4.37;2.60;;;;;;;22.07;51.68;102001.72;2332883;76;24305;-76
2023/09/25 11:17:21;;;;;;;4.03;2.37;;;;;;;22.06;51.68;102001.36;2318659;76;50628;-76
2023/09/25 11:20:30;;;;;;;4.28;2.50;;;;;;;22.07;51.66;101999.02;2306439;76;51037;-77
2023/09/25 11:23:33;;;;;;;2.65;2.15;;;;;;;22.05;51.61;101996.48;2318633;76;53128;-76
2023/09/25 11:26:38;;;;;;;3.10;2.65;;;;;;;22.05;51.65;101984.87;2298309;76;51524;-75
2023/09/25 11:29:40;;;;;;;3.47;2.60;;;;;;;22.04;51.64;101984.52;2331447;76;51511;-77
2023/09/25 11:32:45;;;;;;;4.65;2.77;;;;;;;22.05;51.61;101984.87;2304805;76;50540;-77
2023/09/25 11:35:53;;;;;;;2.62;2.30;;;;;;;22.03;51.67;101980.15;2306524;76;52681;-76
2023/09/25 11:38:52;;;;;;;4.65;2.50;;;;;;;22.03;51.64;101981.50;2331987;75;22412;-76
2023/09/25 11:41:54;;;;;;;5.42;2.60;;;;;;;22.06;51.57;101974.41;2332819;76;51576;-76
2023/09/25 11:44:57;;;;;;;4.25;2.40;;;;;;;22.06;51.54;101975.75;2279309;76;51105;-77
2023/09/25 11:47:59;;;;;;;4.62;2.70;;;;;;;22.04;51.57;101977.77;2318478;76;50138;-77
2023/09/25 11:51:01;;;;;;;5.08;2.85;;;;;;;22.03;51.61;101962.63;2318536;76;50412;-77
2023/09/25 11:54:03;;;;;;;2.90;2.47;;;;;;;22.02;51.60;101958.27;2304768;76;50743;-77
2023/09/25 11:57:07;;;;;;;4.22;2.60;;;;;;;22.03;51.62;101955.37;2299673;76;51393;-76
2023/09/25 12:00:12;;;;;;;2.67;2.35;;;;;;;22.04;51.62;101954.38;2306532;76;51590;-78
2023/09/25 12:03:14;;;;;;;4.22;2.72;;;;;;;22.03;51.64;101946.45;2333137;76;51529;-76
2023/09/25 12:06:17;;;;;;;3.12;2.27;;;;;;;22.01;51.72;101940.39;2318784;75;50644;-78
2023/09/25 12:09:19;;;;;;;5.78;2.42;;;;;;;22.02;51.72;101943.44;2319570;76;51611;-77
2023/09/25 12:12:21;;;;;;;3.40;2.40;;;;;;;22.00;51.78;101944.12;2318981;76;50214;-76
2023/09/25 12:15:23;;;;;;;3.10;2.40;;;;;;;22.02;51.73;101940.23;2305108;76;50352;-77
2023/09/25 12:18:25;;;;;;;3.77;2.40;;;;;;;22.02;51.77;101936.70;2304928;76;50277;-77
2023/09/25 12:21:28;;;;;;;4.90;2.52;;;;;;;22.01;51.80;101939.88;2305025;76;50281;-76
2023/09/25 12:24:30;;;;;;;3.15;2.27;;;;;;;22.00;51.88;101936.03;2301507;76;52346;-77
2023/09/25 12:27:32;;;;;;;2.95;2.42;;;;;;;21.98;51.89;101940.23;2284469;77;50638;-77
2023/09/25 12:30:35;;;;;;;3.55;2.35;;;;;;;21.98;51.92;101935.36;2304761;77;50581;-76
2023/09/25 12:33:37;;;;;;;2.80;2.40;;;;;;;22.00;51.91;101935.52;2282850;77;51601;-76
2023/09/25 12:36:39;;;;;;;3.42;2.67;;;;;;;22.02;51.89;101936.70;2304745;77;51463;-76
2023/09/25 12:39:42;;;;;;;3.55;2.40;;;;;;;22.02;51.89;101934.01;2304763;77;51403;-76
2023/09/25 12:42:47;;;;;;;3.35;2.22;;;;;;;22.05;51.82;101935.84;2283156;77;51540;-77
2023/09/25 12:45:49;;;;;;;5.00;2.40;;;;;;;22.09;51.72;101924.19;2304790;77;50646;-77
2023/09/25 12:48:51;;;;;;;4.15;2.60;;;;;;;22.10;51.68;101927.23;2283198;77;52516;-77
2023/09/25 12:51:54;;;;;;;3.98;2.02;;;;;;;22.12;51.62;101919.30;2304615;77;51415;-77
2023/09/25 12:54:56;;;;;;;3.60;2.25;;;;;;;22.13;51.61;101918.78;2289127;76;50778;-78
2023/09/25 12:57:58;;;;;;;3.70;2.25;;;;;;;22.12;51.62;101915.77;2245308;78;50958;-77
2023/09/25 13:01:00;;;;;;;2.60;2.30;;;;;;;22.14;51.60;101917.76;2268892;78;50589;-78
2023/09/25 13:04:03;;;;;;;2.95;2.20;;;;;;;22.15;51.59;101916.77;2270426;78;51406;-77
2023/09/25 13:07:05;;;;;;;3.00;2.40;;;;;;;22.16;51.56;101910.34;2270922;77;51585;-76
2023/09/25 13:10:08;;;;;;;2.52;2.10;;;;;;;22.16;51.62;101911.69;2269141;78;51402;-76
2023/09/25 13:13:10;;;;;;;2.47;2.20;;;;;;;22.19;51.63;101904.63;2220971;78;52599;-76
2023/09/25 13:16:13;;;;;;;2.67;2.17;;;;;;;22.18;51.63;101902.41;2270474;78;51438;-76
2023/09/25 13:19:15;;;;;;;2.55;2.10;;;;;;;22.19;51.60;101901.92;2268789;78;51471;-76
2023/09/25 13:22:17;;;;;;;2.42;2.00;;;;;;;22.19;51.62;101899.23;2245694;78;52383;-77
2023/09/25 13:25:19;;;;;;;3.00;1.95;;;;;;;22.20;51.59;101898.75;2285121;76;51440;-76
2023/09/25 13:28:21;;;;;;;3.30;2.37;;;;;;;22.22;51.57;101896.20;2305174;76;49961;-77
2023/09/25 13:31:25;;;;;;;2.87;2.10;;;;;;;22.22;51.68;101897.55;2305109;76;50338;-75
2023/09/25 13:34:27;;;;;;;2.37;2.10;;;;;;;22.21;51.61;101885.07;2318566;76;51509;-77
2023/09/25 13:37:29;;;;;;;2.37;2.15;;;;;;;22.22;51.59;101884.56;2279399;76;52605;-76
2023/09/25 13:40:32;;;;;;;2.50;1.85;;;;;;;22.23;51.56;101886.26;2305056;76;51410;-77
2023/09/25 13:43:41;;;;;;;3.33;1.98;;;;;;;22.23;51.71;101876.82;2332605;76;50675;-76
2023/09/25 13:46:43;;;;;;;3.08;2.22;;;;;;;22.25;51.58;101868.05;2306352;76;50996;-75
2023/09/25 13:49:46;;;;;;;2.98;2.30;;;;;;;22.23;51.60;101864.17;2332790;76;50602;-75
2023/09/25 13:52:48;;;;;;;3.17;2.12;;;;;;;22.24;51.61;101875.79;2332604;76;51604;-76
2023/09/25 13:55:51;;;;;;;3.67;1.80;;;;;;;22.26;51.66;101875.11;2280762;77;50379;-76
2023/09/25 13:58:53;;;;;;;3.50;1.87;;;;;;;22.25;51.78;101869.40;2304780;76;51509;-75
2023/09/25 14:01:55;;;;;;;2.25;2.05;;;;;;;22.25;51.91;101867.54;2258352;77;51228;-76
2023/09/25 14:04:57;;;;;;;2.77;2.20;;;;;;;22.24;51.95;101857.75;2283561;77;50206;-76
2023/09/25 14:07:59;;;;;;;3.27;2.20;;;;;;;22.25;52.01;101863.49;2309305;76;50219;-77
2023/09/25 14:11:02;;;;;;;3.30;2.08;;;;;;;22.26;52.09;101867.86;2283499;77;51214;-77